Latest Weather Observations for Gatton

IDQ60801

The Bureau's Brisbane Office is moving locations in November 2018. In the lead up to and during the move, some weather observations or other data on our website may be delayed or temporarily unavailable. Thank you for your patience during this transition.

Issued at 2:42 pm EST Thursday 15 November 2018 (issued every 10 minutes, with the page automatically refreshed every 10 minutes)

About weather observations | Map of weather stations | Latest weather observations for QLD | Other Formats
Station Details ID: 040082 Name: UNIVERSITY OF QUEENSLAND GATTON Lat: -27.54 Lon: 152.34 Height: 89.0 m
Data from the previous 72 hours. | See also: Recent months at Gatton
Date/Time
EST
Temp
°C
App
Temp
°C
Dew
Point
°C
Rel
Hum
%
Delta-T
°C
Wind Press
QNH
hPa
Press
MSL
hPa
Rain since
9am
mm
Dir  Spd
km/h
Gust
km/h
Spd
kts
Gust
kts
15/02:30pm 30.5 28.4 13.7 35 10.1 E 17 24 9 13 - - 0.0
15/02:00pm 31.7 29.7 13.9 34 10.8 E 17 24 9 13 - - 0.0
15/01:30pm 31.2 30.7 13.9 35 10.5 NE 9 15 5 8 - - 0.0
15/01:00pm 31.2 30.4 13.9 35 10.5 E 11 20 6 11 - - 0.0
15/12:30pm 30.1 28.6 14.2 38 9.6 NE 15 26 8 14 - - 0.0
15/12:00pm 29.3 29.3 15.1 42 8.7 ENE 9 19 5 10 - - 0.0
15/11:30am 29.3 28.4 15.8 44 8.4 ENE 15 26 8 14 - - 0.0
15/11:00am 27.7 28.3 15.7 48 7.4 N 7 15 4 8 - - 0.0
15/10:30am 27.1 27.8 16.1 51 6.8 WSW 7 13 4 7 - - 0.0
15/10:00am 26.3 25.9 16.3 54 6.2 N 13 20 7 11 - - 0.0
15/09:30am 26.1 26.0 16.1 54 6.2 NE 11 17 6 9 - - 0.0
15/09:00am 24.6 24.1 15.8 58 5.4 NE 13 19 7 10 - - 0.0
15/08:30am 23.9 24.3 16.2 62 4.7 E 9 17 5 9 - - 0.0
15/08:00am 24.0 24.7 17.0 65 4.3 E 9 13 5 7 - - 0.0
15/07:30am 23.0 24.6 16.8 68 3.8 N 4 7 2 4 - - 0.0
15/07:00am 22.0 24.1 17.2 74 3.0 W 2 7 1 4 - - 0.0
15/06:30am 19.9 20.8 16.5 81 2.1 WSW 7 9 4 5 - - 0.0
15/06:00am 18.3 19.0 16.1 87 1.3 WSW 7 9 4 5 - - 0.0
15/05:30am 15.7 17.1 14.4 92 0.7 CALM 0 0 0 0 - - 0.0
15/05:00am 14.7 15.8 13.6 93 0.6 CALM 0 0 0 0 - - 0.0
15/04:30am 14.5 15.4 13.0 91 0.8 CALM 0 0 0 0 - - 0.0
15/04:00am 14.4 15.2 12.4 88 1.1 CALM 0 0 0 0 - - 0.0
15/03:30am 14.7 15.5 12.7 88 1.1 CALM 0 0 0 0 - - 0.0
15/03:00am 15.8 16.9 14.5 92 0.7 SSE 2 6 1 3 - - 0.0
15/02:30am 15.4 16.4 13.2 87 1.2 CALM 0 0 0 0 - - 0.0
15/02:00am 16.1 17.4 14.1 88 1.1 CALM 0 0 0 0 - - 0.0
15/01:30am 16.3 17.5 13.8 85 1.4 CALM 0 0 0 0 - - 0.0
15/01:00am 17.2 18.8 14.8 86 1.4 CALM 0 0 0 0 - - 0.0
15/12:30am 18.2 18.7 15.1 82 1.8 SE 6 7 3 4 - - 0.0
15/12:00am 18.6 18.9 14.5 77 2.4 ESE 6 7 3 4 - - 0.0
 
Date/Time
EST
Temp
°C
App
Temp
°C
Dew
Point
°C
Rel
Hum
%
Delta-T
°C
Wind Press
QNH
hPa
Press
MSL
hPa
Rain since
9am
mm
Dir  Spd
km/h
Gust
km/h
Spd
kts
Gust
kts
14/11:30pm 20.2 20.9 16.0 77 2.5 NE 7 9 4 5 - - 0.0
14/11:00pm 20.6 21.4 16.4 77 2.5 ENE 7 9 4 5 - - 0.0
14/10:30pm 21.3 22.2 16.7 75 2.8 ENE 7 9 4 5 - - 0.0
14/10:00pm 21.4 21.8 16.4 73 3.0 ENE 9 11 5 6 - - 0.0
14/09:30pm 21.6 22.5 16.1 71 3.3 E 6 9 3 5 - - 0.0
14/09:00pm 21.7 22.6 16.0 70 3.4 ESE 6 7 3 4 - - 0.0
14/08:30pm 22.3 22.6 15.9 67 3.9 E 9 11 5 6 - - 0.0
14/08:00pm 23.0 23.3 16.1 65 4.2 E 9 13 5 7 - - 0.0
14/07:30pm 23.4 23.3 16.0 63 4.5 E 11 15 6 8 - - 0.0
14/07:00pm 24.4 22.8 15.9 59 5.2 ENE 19 24 10 13 - - 0.0
14/06:30pm 25.6 24.0 15.9 55 5.9 ENE 19 28 10 15 - - 0.0
14/06:00pm 26.3 24.0 15.7 52 6.5 E 22 30 12 16 - - 0.0
14/05:30pm 27.3 24.6 14.7 46 7.6 ENE 22 28 12 15 - - 0.0
14/05:00pm 29.4 28.0 9.5 29 11.2 NNW 7 11 4 6 - - 0.0
14/04:30pm 30.3 29.8 10.8 30 11.2 ENE 4 11 2 6 - - 0.0
14/04:00pm 29.0 27.6 9.7 30 10.8 NE 7 9 4 5 - - 0.0
14/03:30pm 30.4 29.4 10.4 29 11.4 NW 6 13 3 7 - - 0.0
14/03:00pm 29.8 28.6 10.4 30 11.1 SSW 7 15 4 8 - - 0.0
14/02:30pm 29.5 28.2 11.1 32 10.6 NE 9 15 5 8 - - 0.0
14/02:00pm 29.8 29.6 11.8 33 10.5 NW 4 11 2 6 - - 0.0
14/01:30pm 28.8 27.7 11.8 35 9.9 NNE 9 19 5 10 - - 0.0
14/01:00pm 28.0 25.9 11.1 35 9.7 N 13 20 7 11 - - 0.0
14/12:30pm 28.8 28.0 11.8 35 9.9 ENE 7 15 4 8 - - 0.0
14/12:00pm 27.7 26.5 11.7 37 9.2 NNE 9 15 5 8 - - 0.0
14/11:30am 26.6 24.7 11.9 40 8.5 NE 13 20 7 11 - - 0.0
14/11:00am 27.4 26.5 14.8 46 7.6 NE 13 20 7 11 - - 0.0
14/10:30am 27.7 27.1 15.7 48 7.4 E 13 26 7 14 - - 0.0
14/10:00am 26.1 25.1 14.6 49 6.9 ENE 13 22 7 12 - - 0.0
14/09:30am 26.6 27.1 16.5 54 6.3 ENE 9 20 5 11 - - 0.0
14/09:00am 25.0 24.9 15.9 57 5.6 NE 11 15 6 8 - - 0.0
14/08:30am 24.2 24.7 15.1 56 5.5 E 6 13 3 7 - - 0.0
14/08:00am 23.0 24.1 14.6 59 5.0 N 2 9 1 5 - - 0.0
14/07:30am 21.3 22.2 14.0 63 4.3 SSE 2 6 1 3 - - 0.0
14/07:00am 19.4 19.5 14.0 71 3.1 WSW 6 9 3 5 - - 0.0
14/06:30am 16.3 15.8 12.8 80 1.9 WSW 7 11 4 6 - - 0.0
14/06:00am 15.3 15.0 12.8 85 1.4 W 6 7 3 4 - - 0.0
14/05:30am 13.6 13.3 11.5 87 1.1 WSW 4 6 2 3 - - 0.0
14/05:00am 12.9 11.9 11.1 89 1.0 WSW 7 9 4 5 - - 0.0
14/04:30am 13.1 12.2 11.2 88 1.0 WSW 7 9 4 5 - - 0.0
14/04:00am 13.2 12.4 11.6 90 0.9 W 7 9 4 5 - - 0.0
14/03:30am 12.8 11.9 11.4 91 0.7 WSW 7 9 4 5 - - 0.0
14/03:00am 12.7 12.1 11.6 93 0.6 WSW 6 9 3 5 - - 0.0
14/02:30am 11.7 11.7 9.8 88 1.0 CALM 0 0 0 0 - - 0.0
14/02:00am 12.1 12.1 9.8 86 1.2 CALM 0 0 0 0 - - 0.0
14/01:30am 13.1 13.3 10.5 84 1.4 CALM 0 0 0 0 - - 0.0
14/01:00am 13.5 13.9 11.2 86 1.2 CALM 0 0 0 0 - - 0.0
14/12:30am 13.7 13.9 10.7 82 1.6 CALM 0 0 0 0 - - 0.0
14/12:00am 14.4 14.7 10.8 79 1.9 CALM 0 0 0 0 - - 0.0
 
Date/Time
EST
Temp
°C
App
Temp
°C
Dew
Point
°C
Rel
Hum
%
Delta-T
°C
Wind Press
QNH
hPa
Press
MSL
hPa
Rain since
9am
mm
Dir  Spd
km/h
Gust
km/h
Spd
kts
Gust
kts
13/11:30pm 15.3 16.0 12.1 81 1.7 CALM 0 7 0 4 - - 0.0
13/11:00pm 16.0 15.6 12.4 79 2.0 E 6 9 3 5 - - 0.0
13/10:30pm 16.4 16.8 12.6 78 2.1 SSE 2 7 1 4 - - 0.0
13/10:00pm 17.4 18.1 12.3 72 2.8 CALM 0 4 0 2 - - 0.0
13/09:30pm 17.8 16.3 13.1 74 2.6 E 13 15 7 8 - - 0.0
13/09:00pm 19.5 18.4 13.0 66 3.7 E 11 15 6 8 - - 0.0
13/08:30pm 20.1 18.8 13.6 66 3.7 E 13 17 7 9 - - 0.0
13/08:00pm 20.5 19.4 13.2 63 4.2 ENE 11 15 6 8 - - 0.0
13/07:30pm 21.3 19.8 13.0 59 4.8 ENE 13 17 7 9 - - 0.0
13/07:00pm 21.0 18.9 11.3 54 5.4 ENE 13 17 7 9 - - 0.0
13/06:30pm 22.4 19.7 11.8 51 6.0 ENE 17 20 9 11 - - 0.0
13/06:00pm 23.6 20.8 12.6 50 6.3 NE 19 26 10 14 - - 0.0
13/05:30pm 24.2 21.2 12.5 48 6.7 ENE 20 28 11 15 - - 0.0
13/05:00pm 25.3 22.0 12.9 46 7.2 ENE 22 33 12 18 - - 0.0
13/04:30pm 26.0 22.4 13.2 45 7.5 NE 24 32 13 17 - - 0.0
13/04:00pm 26.7 24.1 13.1 43 8.0 NE 19 30 10 16 - - 0.0
13/03:30pm 26.7 23.1 12.0 40 8.5 NE 22 35 12 19 - - 0.0
13/03:00pm 26.9 23.3 11.8 39 8.7 E 22 30 12 16 - - 0.0
13/02:30pm 27.5 24.0 12.3 39 8.8 E 22 35 12 19 - - 0.0
13/02:00pm 28.9 25.8 12.3 36 9.7 E 20 33 11 18 - - 0.0
13/01:30pm 27.1 23.8 11.6 38 8.9 ESE 20 32 11 17 - - 0.0
13/01:00pm 28.8 25.9 12.2 35 9.7 E 19 28 10 15 - - 0.0
13/12:30pm 28.4 25.6 13.1 39 9.1 ESE 20 33 11 18 - - 0.0
13/12:00pm 28.6 26.4 14.4 41 8.6 E 19 33 10 18 - - 0.0
13/11:30am 27.4 25.0 13.7 43 8.2 E 19 28 10 15 - - 0.0
13/11:00am 26.9 24.6 12.9 42 8.2 E 17 26 9 14 - - 0.0
13/10:30am 25.5 23.2 13.0 46 7.3 E 17 24 9 13 - - 0.0
13/10:00am 25.1 22.7 12.7 46 7.2 E 17 28 9 15 - - 0.0
13/09:30am 25.0 23.4 13.9 50 6.6 E 15 22 8 12 - - 0.0
13/09:00am 24.4 22.0 13.9 52 6.2 ENE 19 30 10 16 - - 0.0
13/08:30am 24.9 22.1 14.4 52 6.3 E 22 30 12 16 - - 0.0
13/08:00am 24.0 21.7 14.1 54 5.8 ESE 19 28 10 15 - - 0.0
13/07:30am 22.5 20.5 13.8 58 5.1 SE 17 24 9 13 - - 0.0
13/07:00am 20.4 18.7 12.4 60 4.5 SE 13 19 7 10 - - 0.0
13/06:30am 19.0 19.8 12.7 67 3.5 CALM 0 7 0 4 - - 0.0
13/06:00am 15.5 15.7 11.9 79 2.0 W 2 7 1 4 - - 0.0
13/05:30am 12.9 12.9 11.1 89 1.0 W 2 7 1 4 - - 0.0
13/05:00am 10.6 10.4 8.9 89 0.8 CALM 0 6 0 3 - - 0.0
13/04:30am 10.5 10.1 8.1 85 1.2 CALM 0 0 0 0 - - 0.0
13/04:00am 11.5 11.4 9.4 87 1.1 CALM 0 0 0 0 - - 0.0
13/03:30am 11.6 11.1 9.2 85 1.2 WSW 2 7 1 4 - - 0.0
13/03:00am 12.2 12.1 9.4 83 1.4 CALM 0 6 0 3 - - 0.0
13/02:30am 12.8 12.3 9.3 79 1.8 N 2 7 1 4 - - 0.0
13/02:00am 14.8 14.3 10.8 77 2.1 NE 4 7 2 4 - - 0.0
13/01:30am 14.7 14.7 11.1 79 1.9 E 2 7 1 4 - - 0.0
13/01:00am 13.9 14.3 11.1 83 1.5 CALM 0 7 0 4 - - 0.0
13/12:30am 12.7 12.8 10.2 85 1.3 CALM 0 6 0 3 - - 0.0
13/12:00am 13.3 13.7 11.4 88 1.0 CALM 0 0 0 0 - - 0.0
 
Date/Time
EST
Temp
°C
App
Temp
°C
Dew
Point
°C
Rel
Hum
%
Delta-T
°C
Wind Press
QNH
hPa
Press
MSL
hPa
Rain since
9am
mm
Dir  Spd
km/h
Gust
km/h
Spd
kts
Gust
kts
12/11:30pm 12.6 12.5 9.4 81 1.6 CALM 0 0 0 0 - - 0.0
12/11:00pm 13.5 13.7 10.7 83 1.5 CALM 0 0 0 0 - - 0.0
12/10:30pm 14.4 14.7 11.0 80 1.8 CALM 0 0 0 0 - - 0.0
12/10:00pm 15.1 14.6 10.7 75 2.3 N 4 7 2 4 - - 0.0
12/09:30pm 16.4 15.5 11.3 72 2.8 NE 7 9 4 5 - - 0.0
12/09:00pm 17.5 16.9 12.2 71 2.9 ENE 7 11 4 6 - - 0.0
12/08:30pm 19.3 17.9 12.3 64 3.9 ENE 11 17 6 9 - - 0.0
12/08:00pm 19.9 18.2 12.4 62 4.2 ENE 13 19 7 10 - - 0.0
12/07:30pm 21.0 18.1 12.4 58 4.9 ENE 19 26 10 14 - - 0.0
12/07:00pm 21.7 18.2 12.3 55 5.3 E 22 30 12 16 - - 0.0
12/06:30pm 22.7 18.7 11.7 49 6.2 E 24 33 13 18 - - 0.0
12/06:00pm 23.7 19.4 10.7 44 7.2 E 24 32 13 17 - - 0.0
12/05:30pm 25.1 20.5 10.9 41 8.0 E 26 35 14 19 - - 0.0
12/05:00pm 26.4 22.1 10.9 38 8.8 E 24 32 13 17 - - 0.0
12/04:30pm 27.9 23.3 8.2 29 10.7 E 22 32 12 17 - - 0.0
12/04:00pm 28.8 24.7 8.5 28 11.2 E 20 30 11 16 - - 0.0
12/03:30pm 28.7 24.6 7.9 27 11.3 ESE 19 28 10 15 - - 0.0
12/03:00pm 29.4 25.5 8.5 27 11.5 SSE 19 32 10 17 - - 0.0

Other Formats:

Comma delimited format used in spreadsheet applications
http://www.bom.gov.au/fwo/IDQ60801/IDQ60801.94562.axf

JavaScript Object Notation format (JSON) in row-major order
http://www.bom.gov.au/fwo/IDQ60801/IDQ60801.94562.json